Time;durP1;ratioP1;P1;durP2;ratioP2;P2;SDS_P1;SDS_P2;PMS_P1;PMS_P2;Temp;Humidity;BMP_temperature;BMP_pressure;BME280_temperature;BME280_humidity;BME280_pressure;Samples;Min_cycle;Max_cycle;Signal;HPM_P1;HPM_P2
2021/06/20 04:00:55;;;;;;;17.43;15.87;;;23.10;99.90;;;;;;5670528;23;20648;-66
2021/06/20 04:03:22;;;;;;;16.53;15.37;;;23.20;99.90;;;;;;4936019;29;20461;-69
2021/06/20 04:05:49;;;;;;;17.00;15.80;;;23.20;99.90;;;;;;4936648;28;20462;-70
2021/06/20 04:08:16;;;;;;;16.67;15.30;;;23.30;99.90;;;;;;4935577;29;20501;-70
2021/06/20 04:10:43;;;;;;;16.73;15.50;;;23.30;99.90;;;;;;4936433;29;20485;-69
2021/06/20 04:13:09;;;;;;;17.47;16.17;;;23.30;99.90;;;;;;4936348;29;20770;-70
2021/06/20 04:15:36;;;;;;;16.70;15.23;;;23.40;99.90;;;;;;4936403;29;20964;-70
2021/06/20 04:18:05;;;;;;;15.87;14.80;;;23.30;99.90;;;;;;4936349;29;20462;-70
2021/06/20 04:20:31;;;;;;;16.30;15.20;;;23.40;99.90;;;;;;4936357;29;20981;-70
2021/06/20 04:22:58;;;;;;;17.23;15.77;;;23.30;99.90;;;;;;4934401;29;20473;-69
2021/06/20 04:25:25;;;;;;;15.93;14.63;;;23.30;99.90;;;;;;4936229;29;20664;-70
2021/06/20 04:27:51;;;;;;;14.43;13.37;;;23.30;99.90;;;;;;4936244;29;20886;-70
2021/06/20 04:30:20;;;;;;;14.37;13.07;;;23.20;99.90;;;;;;4936249;29;20469;-70
2021/06/20 04:32:48;;;;;;;12.10;11.30;;;23.10;99.90;;;;;;4935840;29;20469;-70
2021/06/20 04:35:16;;;;;;;8.37;7.97;;;23.00;99.90;;;;;;4936520;29;20474;-69
2021/06/20 04:37:44;;;;;;;9.27;8.63;;;22.90;99.90;;;;;;4935191;29;20499;-68
2021/06/20 04:40:14;;;;;;;12.90;10.03;;;22.80;99.90;;;;;;4936281;29;20469;-68
2021/06/20 04:42:42;;;;;;;9.23;8.50;;;22.70;99.90;;;;;;4935290;29;20545;-68
2021/06/20 04:45:12;;;;;;;7.90;7.43;;;22.50;99.90;;;;;;4935691;29;20870;-68
2021/06/20 04:47:42;;;;;;;8.63;7.77;;;22.20;99.90;;;;;;4935930;29;20973;-68
2021/06/20 04:50:09;;;;;;;9.50;8.87;;;22.00;99.90;;;;;;4935899;29;20879;-68
2021/06/20 04:52:41;;;;;;;9.47;8.67;;;21.90;99.90;;;;;;4934759;29;20474;-68
2021/06/20 04:55:09;;;;;;;8.37;7.53;;;21.60;99.90;;;;;;4936330;29;20530;-68
2021/06/20 04:57:35;;;;;;;10.03;9.20;;;21.50;99.90;;;;;;4928339;29;20782;-68
2021/06/20 05:00:03;;;;;;;9.97;9.10;;;21.40;99.90;;;;;;4935497;28;20958;-68
2021/06/20 05:02:30;;;;;;;10.30;9.40;;;21.50;99.90;;;;;;4935020;29;20501;-68
2021/06/20 05:04:57;;;;;;;11.07;10.17;;;21.50;99.90;;;;;;4935613;29;20882;-68
2021/06/20 05:07:23;;;;;;;10.30;9.27;;;21.50;99.90;;;;;;4934941;29;20473;-68
2021/06/20 05:09:51;;;;;;;10.10;9.10;;;21.40;99.90;;;;;;4935456;29;20946;-68
2021/06/20 05:12:18;;;;;;;9.73;9.13;;;21.30;99.90;;;;;;4935381;29;20973;-68
2021/06/20 05:14:46;;;;;;;7.97;7.47;;;21.20;99.90;;;;;;4935165;29;20472;-68
2021/06/20 05:17:15;;;;;;;7.37;6.87;;;21.00;99.90;;;;;;4935211;29;20549;-68
2021/06/20 05:19:42;;;;;;;7.30;6.60;;;20.90;99.90;;;;;;4935140;29;20469;-69
2021/06/20 05:22:09;;;;;;;8.00;7.40;;;20.80;99.90;;;;;;4934865;29;20834;-68
2021/06/20 05:24:36;;;;;;;8.67;7.87;;;20.70;99.90;;;;;;4934814;29;20461;-69
2021/06/20 05:27:04;;;;;;;7.57;7.07;;;20.60;99.90;;;;;;4935240;29;20477;-68
2021/06/20 05:29:31;;;;;;;7.93;7.23;;;20.50;99.90;;;;;;4935307;29;20807;-67
2021/06/20 05:31:58;;;;;;;8.50;7.80;;;20.50;99.90;;;;;;4935137;29;20500;-67
2021/06/20 05:34:24;;;;;;;7.43;6.47;;;20.50;99.90;;;;;;4933974;29;20470;-68
2021/06/20 05:36:51;;;;;;;8.80;5.33;;;20.40;99.90;;;;;;4934917;29;20477;-67
2021/06/20 05:39:18;;;;;;;5.70;5.20;;;20.30;99.90;;;;;;4934649;29;20470;-69
2021/06/20 05:41:44;;;;;;;5.20;4.80;;;20.30;99.90;;;;;;4935164;29;20485;-69
2021/06/20 05:44:12;;;;;;;6.33;5.73;;;20.20;99.90;;;;;;4934962;29;20465;-69
2021/06/20 05:46:39;;;;;;;7.47;5.17;;;20.10;99.90;;;;;;4931329;29;20473;-68
2021/06/20 05:49:06;;;;;;;7.27;5.27;;;19.90;99.90;;;;;;4934687;28;20482;-69
2021/06/20 05:51:32;;;;;;;9.43;6.30;;;19.80;99.90;;;;;;4935197;29;20489;-69
2021/06/20 05:53:59;;;;;;;6.70;5.83;;;19.80;99.90;;;;;;4933771;29;20477;-69
2021/06/20 05:56:25;;;;;;;6.23;5.70;;;19.80;99.90;;;;;;4934977;29;20473;-69
2021/06/20 05:58:52;;;;;;;6.10;5.70;;;19.80;99.90;;;;;;4934757;29;20473;-68
2021/06/20 06:01:20;;;;;;;7.00;6.30;;;19.80;99.90;;;;;;4934717;29;20977;-69
2021/06/20 06:03:47;;;;;;;7.50;5.80;;;19.70;99.90;;;;;;4934610;29;20466;-69
2021/06/20 06:06:13;;;;;;;8.73;5.70;;;19.70;99.90;;;;;;4935074;29;20473;-68
2021/06/20 06:08:40;;;;;;;4.53;4.23;;;19.70;99.90;;;;;;4933895;29;20577;-69
2021/06/20 06:11:07;;;;;;;3.20;3.10;;;19.70;99.90;;;;;;4934802;29;20821;-68
2021/06/20 06:13:34;;;;;;;4.83;4.40;;;19.60;99.90;;;;;;4934489;29;20466;-68
2021/06/20 06:16:01;;;;;;;8.23;5.13;;;19.50;99.90;;;;;;4935156;29;20473;-69
2021/06/20 06:18:29;;;;;;;5.00;4.70;;;19.50;99.90;;;;;;4934874;29;20492;-69
2021/06/20 06:20:55;;;;;;;5.70;4.63;;;19.60;99.90;;;;;;4935082;29;20512;-69
2021/06/20 06:23:22;;;;;;;7.50;4.80;;;19.50;99.90;;;;;;4933787;29;20461;-70
2021/06/20 06:25:49;;;;;;;9.20;4.80;;;19.60;99.90;;;;;;4934815;29;20466;-70
2021/06/20 06:28:16;;;;;;;5.30;4.93;;;19.70;99.90;;;;;;4934458;29;20541;-67
2021/06/20 06:30:42;;;;;;;6.00;4.93;;;19.70;99.90;;;;;;4934838;29;20844;-67
2021/06/20 06:33:09;;;;;;;6.50;5.87;;;19.80;99.90;;;;;;4934497;29;20493;-67
2021/06/20 06:35:37;;;;;;;5.10;4.70;;;19.80;99.90;;;;;;4934512;29;20930;-67
2021/06/20 06:38:04;;;;;;;5.20;4.80;;;19.90;99.90;;;;;;4933899;29;20495;-67
2021/06/20 06:40:31;;;;;;;5.50;5.00;;;19.90;99.90;;;;;;4935145;29;20496;-67
2021/06/20 06:42:58;;;;;;;5.30;4.90;;;20.00;99.90;;;;;;4934287;29;20480;-69
2021/06/20 06:45:25;;;;;;;5.27;4.87;;;20.10;99.90;;;;;;4936549;29;20965;-69
2021/06/20 06:47:51;;;;;;;6.17;5.67;;;20.20;99.90;;;;;;4938038;29;20469;-70
2021/06/20 06:50:18;;;;;;;7.60;5.20;;;20.30;99.90;;;;;;4938083;29;20466;-69
2021/06/20 06:52:47;;;;;;;6.20;5.70;;;20.40;99.90;;;;;;4936698;29;20493;-69
2021/06/20 06:55:15;;;;;;;8.17;5.10;;;20.50;99.90;;;;;;4937808;29;20469;-69
2021/06/20 06:57:43;;;;;;;6.77;4.90;;;20.50;99.90;;;;;;4937934;29;20465;-69
2021/06/20 07:00:11;;;;;;;7.40;5.20;;;20.60;99.90;;;;;;4937855;29;20790;-69
2021/06/20 07:02:38;;;;;;;5.77;5.37;;;20.60;99.90;;;;;;4937291;29;21273;-69
2021/06/20 07:05:06;;;;;;;6.43;5.80;;;20.70;99.90;;;;;;4937858;29;20934;-70
2021/06/20 07:07:33;;;;;;;6.87;5.30;;;20.80;99.90;;;;;;4936596;28;20568;-69
2021/06/20 07:10:02;;;;;;;5.67;5.27;;;20.90;99.90;;;;;;4937960;29;20829;-69
2021/06/20 07:12:29;;;;;;;5.27;4.83;;;21.00;99.90;;;;;;4936915;29;21038;-69
2021/06/20 07:14:56;;;;;;;7.00;5.17;;;21.20;99.90;;;;;;4937798;29;20477;-70
2021/06/20 07:17:22;;;;;;;9.80;4.90;;;21.40;99.90;;;;;;4937440;29;20517;-69
2021/06/20 07:19:49;;;;;;;5.50;4.43;;;21.70;99.90;;;;;;4937608;29;20810;-69
2021/06/20 07:22:16;;;;;;;7.90;4.20;;;22.00;99.90;;;;;;4936803;29;20494;-68
2021/06/20 07:24:43;;;;;;;5.23;4.57;;;22.40;99.90;;;;;;4937344;29;20482;-69
2021/06/20 07:27:13;;;;;;;5.47;4.80;;;22.50;99.90;;;;;;4931497;28;20612;-69
2021/06/20 07:29:41;;;;;;;5.13;4.67;;;22.60;99.90;;;;;;4937100;29;20469;-69
2021/06/20 07:32:08;;;;;;;6.67;4.80;;;22.70;99.90;;;;;;4936739;29;20498;-69
2021/06/20 07:34:34;;;;;;;6.10;5.13;;;22.90;99.90;;;;;;4937464;29;20465;-69
2021/06/20 07:37:01;;;;;;;4.70;4.20;;;23.30;99.90;;;;;;4936566;29;20992;-70
2021/06/20 07:39:29;;;;;;;5.30;4.37;;;23.90;99.90;;;;;;4936858;29;20476;-67
2021/06/20 07:41:56;;;;;;;6.97;4.73;;;24.70;99.90;;;;;;4937259;29;20870;-67
2021/06/20 07:44:24;;;;;;;10.63;5.40;;;25.60;99.90;;;;;;4937138;29;20941;-68
2021/06/20 07:46:51;;;;;;;7.43;4.97;;;26.00;99.90;;;;;;4937334;29;20805;-68
2021/06/20 07:49:18;;;;;;;5.77;4.67;;;26.60;99.90;;;;;;4937140;29;20938;-69
2021/06/20 07:51:46;;;;;;;5.50;4.90;;;26.70;99.90;;;;;;4936826;29;20481;-68
2021/06/20 07:54:12;;;;;;;5.80;4.70;;;27.00;99.90;;;;;;4936316;29;21039;-66
2021/06/20 07:56:39;;;;;;;5.33;4.93;;;27.00;99.90;;;;;;4935732;29;20476;-66
2021/06/20 07:59:06;;;;;;;4.73;4.13;;;27.10;99.90;;;;;;4917670;29;20464;-67
2021/06/20 08:01:34;;;;;;;7.07;4.83;;;27.20;99.90;;;;;;4917705;29;20501;-67
2021/06/20 08:04:00;;;;;;;5.20;4.33;;;27.40;99.90;;;;;;4917412;29;20517;-68
2021/06/20 08:06:27;;;;;;;5.40;4.60;;;27.70;99.90;;;;;;4918087;29;20484;-68
2021/06/20 08:08:55;;;;;;;5.13;4.30;;;27.90;99.90;;;;;;4916686;29;20472;-67
2021/06/20 08:11:23;;;;;;;4.37;4.07;;;28.30;99.90;;;;;;4917522;29;20559;-68
2021/06/20 08:13:50;;;;;;;5.10;4.50;;;28.70;99.90;;;;;;4917063;29;20515;-67
2021/06/20 08:16:16;;;;;;;7.70;4.20;;;28.40;99.90;;;;;;4917305;29;20568;-68
2021/06/20 08:18:44;;;;;;;7.73;4.10;;;28.00;99.90;;;;;;4917038;29;20658;-68
2021/06/20 08:21:11;;;;;;;8.40;3.90;;;28.30;99.90;;;;;;4917479;29;20484;-67
2021/06/20 08:23:38;;;;;;;4.23;3.93;;;28.50;99.90;;;;;;4916640;29;20466;-68
2021/06/20 08:26:05;;;;;;;4.97;4.20;;;28.70;99.90;;;;;;4917310;29;20929;-67
2021/06/20 08:28:32;;;;;;;5.87;5.00;;;28.60;99.90;;;;;;4916940;29;20819;-67
2021/06/20 08:30:59;;;;;;;7.53;4.57;;;28.40;99.90;;;;;;4917182;29;20554;-69
2021/06/20 08:33:25;;;;;;;4.40;4.10;;;28.20;99.90;;;;;;4916732;29;20495;-68
2021/06/20 08:35:53;;;;;;;4.83;4.50;;;28.30;99.90;;;;;;4919341;29;20473;-67
2021/06/20 08:38:20;;;;;;;5.17;4.60;;;28.10;99.90;;;;;;4935742;29;20468;-67
2021/06/20 08:40:47;;;;;;;5.10;4.80;;;27.60;99.90;;;;;;4936137;29;20536;-67
2021/06/20 08:43:14;;;;;;;5.63;5.10;;;27.30;99.90;;;;;;4935645;29;20465;-67
2021/06/20 08:45:42;;;;;;;5.70;4.90;;;27.00;99.90;;;;;;4935644;29;20928;-68
2021/06/20 08:48:12;;;;;;;5.40;4.90;;;26.80;99.90;;;;;;4935809;29;20479;-67
2021/06/20 08:50:44;;;;;;;5.90;5.27;;;26.60;99.90;;;;;;4936020;29;20825;-67
2021/06/20 08:53:16;;;;;;;4.80;4.40;;;26.60;99.90;;;;;;4934656;29;20531;-68
2021/06/20 08:55:43;;;;;;;5.33;4.90;;;26.60;99.90;;;;;;4936039;29;20492;-68
2021/06/20 08:58:18;;;;;;;5.23;4.73;;;26.30;99.90;;;;;;4935319;29;20564;-69
2021/06/20 09:00:45;;;;;;;4.77;4.47;;;25.90;99.90;;;;;;4935920;29;20500;-68
2021/06/20 09:03:12;;;;;;;4.80;4.60;;;25.60;99.90;;;;;;4935403;29;20466;-68
2021/06/20 09:05:38;;;;;;;5.57;4.40;;;25.70;99.90;;;;;;4936037;28;20466;-68
2021/06/20 09:08:16;;;;;;;4.73;4.17;;;26.10;99.90;;;;;;4935563;29;20470;-68
2021/06/20 09:10:43;;;;;;;5.10;4.80;;;26.50;99.90;;;;;;4935828;29;20493;-69
2021/06/20 09:13:12;;;;;;;4.80;4.60;;;26.40;99.90;;;;;;4935024;29;20557;-68
2021/06/20 09:15:38;;;;;;;5.03;4.53;;;26.30;99.90;;;;;;4935869;29;20475;-68
2021/06/20 09:18:10;;;;;;;4.83;4.43;;;26.30;99.90;;;;;;4935127;29;20781;-68
2021/06/20 09:20:38;;;;;;;4.23;3.93;;;26.20;99.90;;;;;;4935768;29;20576;-68
2021/06/20 09:23:08;;;;;;;4.63;4.43;;;26.10;99.90;;;;;;4934446;29;20466;-68
2021/06/20 09:25:38;;;;;;;5.33;4.83;;;25.90;99.90;;;;;;4929257;29;20498;-68
2021/06/20 09:28:06;;;;;;;4.60;4.30;;;26.10;99.90;;;;;;4916111;29;20479;-68
2021/06/20 09:30:36;;;;;;;4.43;4.23;;;26.20;99.90;;;;;;4916253;29;20813;-68
2021/06/20 09:33:05;;;;;;;5.03;4.63;;;26.40;99.90;;;;;;4915891;29;20563;-68
2021/06/20 09:35:41;;;;;;;5.07;4.60;;;26.50;99.90;;;;;;4916190;29;21012;-68
2021/06/20 09:38:09;;;;;;;5.37;5.07;;;26.40;99.90;;;;;;4915438;29;20533;-68
2021/06/20 09:40:38;;;;;;;5.37;5.17;;;26.20;99.90;;;;;;4916332;29;20502;-68
2021/06/20 09:43:13;;;;;;;5.10;4.80;;;26.30;99.90;;;;;;4915881;29;20459;-68
2021/06/20 09:45:42;;;;;;;5.73;5.20;;;26.40;99.90;;;;;;4916259;29;20512;-68
2021/06/20 09:48:09;;;;;;;6.33;5.73;;;26.50;99.90;;;;;;4915948;29;20969;-69
2021/06/20 09:50:38;;;;;;;6.30;6.00;;;26.40;99.90;;;;;;4916219;29;20495;-68
2021/06/20 09:53:05;;;;;;;5.93;5.60;;;26.30;99.90;;;;;;4914744;29;20506;-68
2021/06/20 09:55:34;;;;;;;6.80;6.30;;;26.40;99.90;;;;;;4916155;29;20872;-68
2021/06/20 09:58:03;;;;;;;5.70;5.50;;;26.40;99.90;;;;;;4926365;29;20537;-69
2021/06/20 10:00:38;;;;;;;6.10;5.80;;;26.50;99.90;;;;;;4934986;29;20509;-68
2021/06/20 10:03:06;;;;;;;6.07;5.60;;;26.80;99.90;;;;;;4934706;29;20446;-68
2021/06/20 10:05:33;;;;;;;6.60;6.03;;;26.90;99.90;;;;;;4934669;29;20545;-69
2021/06/20 10:08:01;;;;;;;6.43;6.20;;;27.00;99.90;;;;;;4934193;29;20488;-69
2021/06/20 10:10:29;;;;;;;7.37;7.07;;;26.90;99.90;;;;;;4935015;29;20881;-70
2021/06/20 10:12:56;;;;;;;6.93;6.40;;;26.70;99.90;;;;;;4935141;29;20487;-69
2021/06/20 10:15:28;;;;;;;6.93;6.53;;;26.70;99.90;;;;;;4936895;29;20807;-69
2021/06/20 10:17:58;;;;;;;6.57;6.33;;;26.60;99.90;;;;;;4934760;29;20454;-70
2021/06/20 10:20:31;;;;;;;6.77;6.53;;;26.50;99.90;;;;;;4937157;29;20462;-69
2021/06/20 10:22:58;;;;;;;7.60;7.00;;;26.60;99.90;;;;;;4937328;29;20568;-70
2021/06/20 10:25:27;;;;;;;7.70;7.30;;;26.90;99.90;;;;;;4938491;29;20797;-70
2021/06/20 10:28:04;;;;;;;7.00;6.50;;;26.90;99.90;;;;;;4937982;29;20992;-70
2021/06/20 10:30:35;;;;;;;8.37;7.77;;;27.00;99.90;;;;;;4938632;29;20981;-69
2021/06/20 10:33:08;;;;;;;8.43;7.73;;;27.00;99.90;;;;;;4938035;29;20581;-70
2021/06/20 10:35:36;;;;;;;7.73;7.00;;;27.10;99.90;;;;;;4937527;29;20476;-70
2021/06/20 10:38:03;;;;;;;8.43;7.77;;;27.10;99.90;;;;;;4936873;28;20989;-70
2021/06/20 10:40:32;;;;;;;7.67;7.17;;;27.00;99.90;;;;;;4938356;29;20796;-69
2021/06/20 10:43:00;;;;;;;8.17;7.77;;;27.10;99.90;;;;;;4937639;29;20473;-70
2021/06/20 10:45:34;;;;;;;7.93;7.53;;;27.10;99.90;;;;;;4938072;29;20815;-69
2021/06/20 10:48:13;;;;;;;8.10;7.73;;;27.20;99.90;;;;;;4937878;29;20534;-70
2021/06/20 10:50:42;;;;;;;9.57;7.03;;;27.20;99.90;;;;;;4937693;29;20490;-70
2021/06/20 10:53:08;;;;;;;7.47;7.17;;;27.30;99.90;;;;;;4936671;29;20493;-70
2021/06/20 10:55:43;;;;;;;7.20;6.90;;;27.40;99.90;;;;;;4937761;29;20481;-69
2021/06/20 10:58:25;;;;;;;7.77;7.37;;;27.50;99.90;;;;;;4937506;29;20475;-69
2021/06/20 11:01:06;;;;;;;7.60;7.10;;;27.50;99.90;;;;;;4937869;29;20500;-69
2021/06/20 11:03:33;;;;;;;6.70;6.30;;;27.50;99.90;;;;;;4937422;29;20463;-69
2021/06/20 11:06:13;;;;;;;7.70;7.23;;;27.70;99.90;;;;;;4937706;29;20482;-69
2021/06/20 11:08:41;;;;;;;7.77;7.37;;;28.00;99.90;;;;;;4936539;29;20934;-70
2021/06/20 11:11:15;;;;;;;7.80;7.37;;;28.20;99.90;;;;;;4937399;29;20528;-70
2021/06/20 11:13:44;;;;;;;7.20;6.90;;;28.30;99.90;;;;;;4936888;29;20496;-69
2021/06/20 11:16:13;;;;;;;7.37;6.90;;;27.90;99.90;;;;;;4937743;29;20840;-69
2021/06/20 11:18:41;;;;;;;6.63;6.33;;;27.80;99.90;;;;;;4937548;29;20471;-69
2021/06/20 11:21:08;;;;;;;7.33;6.90;;;27.90;99.90;;;;;;4937399;29;20499;-70
2021/06/20 11:23:36;;;;;;;7.23;6.60;;;28.00;99.90;;;;;;4936117;29;20549;-69
2021/06/20 11:26:04;;;;;;;7.10;6.90;;;28.30;99.90;;;;;;4930889;29;20469;-70
2021/06/20 11:28:31;;;;;;;7.43;7.03;;;28.30;99.90;;;;;;4937294;29;20552;-70
2021/06/20 11:31:06;;;;;;;6.83;6.47;;;28.30;99.90;;;;;;4937308;29;20492;-70
2021/06/20 11:33:34;;;;;;;8.13;7.47;;;28.00;99.90;;;;;;4936856;29;20503;-70
2021/06/20 11:36:01;;;;;;;7.00;6.70;;;27.90;99.90;;;;;;4937025;29;20469;-70
2021/06/20 11:38:33;;;;;;;6.57;6.33;;;28.00;99.90;;;;;;4936044;29;20824;-70
2021/06/20 11:41:14;;;;;;;6.77;6.50;;;28.20;99.90;;;;;;4937225;29;20572;-70
2021/06/20 11:43:55;;;;;;;6.80;6.50;;;28.30;99.90;;;;;;4936483;29;20487;-70
2021/06/20 11:46:23;;;;;;;6.17;5.97;;;28.30;99.90;;;;;;4937070;29;20479;-70
2021/06/20 11:48:56;;;;;;;6.60;6.30;;;28.30;99.90;;;;;;4936524;29;20835;-70
2021/06/20 11:51:30;;;;;;;7.47;7.17;;;28.10;99.90;;;;;;4937185;29;20497;-70
2021/06/20 11:54:08;;;;;;;7.20;6.80;;;28.00;99.90;;;;;;4935689;29;20523;-70
2021/06/20 11:56:35;;;;;;;6.50;6.10;;;27.90;99.90;;;;;;4936798;29;20472;-70
2021/06/20 11:59:02;;;;;;;6.50;6.23;;;28.20;99.90;;;;;;4917408;29;20497;-70
2021/06/20 12:01:42;;;;;;;6.30;6.00;;;28.30;99.90;;;;;;4917316;29;20494;-69
2021/06/20 12:04:11;;;;;;;7.07;6.80;;;28.60;99.90;;;;;;4917201;29;20466;-70
2021/06/20 12:06:39;;;;;;;6.43;6.23;;;28.70;99.90;;;;;;4917599;29;20484;-70
2021/06/20 12:09:08;;;;;;;7.03;6.73;;;28.60;99.90;;;;;;4916596;29;20489;-70
2021/06/20 12:11:35;;;;;;;6.97;6.47;;;28.50;99.90;;;;;;4917403;29;20567;-70
2021/06/20 12:14:03;;;;;;;6.27;6.07;;;28.60;99.90;;;;;;4917040;29;21001;-69
2021/06/20 12:16:29;;;;;;;6.60;6.40;;;28.80;99.90;;;;;;4917860;29;20581;-70
2021/06/20 12:18:57;;;;;;;5.50;5.40;;;29.10;99.90;;;;;;4917047;29;20466;-70
2021/06/20 12:21:28;;;;;;;5.97;5.77;;;29.10;99.90;;;;;;4917258;29;20513;-70
2021/06/20 12:23:57;;;;;;;5.93;5.73;;;29.30;99.90;;;;;;4916058;29;20471;-70
2021/06/20 12:26:28;;;;;;;4.90;4.90;;;29.50;99.90;;;;;;4917531;29;20480;-70
2021/06/20 12:28:55;;;;;;;5.43;5.33;;;29.30;99.90;;;;;;4917281;29;20477;-70
2021/06/20 12:31:23;;;;;;;5.10;4.90;;;29.20;99.90;;;;;;4917221;29;20497;-70
2021/06/20 12:33:59;;;;;;;5.20;5.10;;;29.20;99.90;;;;;;4916533;29;20485;-70
2021/06/20 12:36:28;;;;;;;5.67;5.37;;;29.10;99.90;;;;;;4923125;29;20541;-70
2021/06/20 12:39:07;;;;;;;5.27;5.10;;;29.20;99.90;;;;;;4935062;29;20805;-70
2021/06/20 12:41:35;;;;;;;5.33;5.13;;;29.40;99.90;;;;;;4936216;29;20493;-70
2021/06/20 12:44:04;;;;;;;4.47;4.37;;;29.50;99.90;;;;;;4934740;29;20804;-70
2021/06/20 12:46:35;;;;;;;4.90;4.67;;;29.50;99.90;;;;;;4935648;29;20496;-70
2021/06/20 12:49:06;;;;;;;4.10;4.00;;;29.40;99.90;;;;;;4935126;29;20480;-70
2021/06/20 12:51:37;;;;;;;4.23;4.17;;;29.20;99.90;;;;;;4938062;29;20492;-70
2021/06/20 12:54:07;;;;;;;3.93;3.83;;;29.30;99.90;;;;;;4934637;29;20499;-70
2021/06/20 12:56:35;;;;;;;3.80;3.70;;;29.60;99.90;;;;;;4935687;29;20545;-70
2021/06/20 12:59:03;;;;;;;4.00;4.00;;;29.50;98.80;;;;;;4935287;29;20856;-70
2021/06/20 13:01:31;;;;;;;4.40;4.00;;;29.30;98.60;;;;;;4935239;29;20510;-70
2021/06/20 13:04:08;;;;;;;5.00;4.60;;;29.30;99.70;;;;;;4934878;29;20574;-69
2021/06/20 13:06:36;;;;;;;4.87;4.67;;;29.20;99.90;;;;;;4935281;29;20543;-70
2021/06/20 13:09:04;;;;;;;4.80;4.60;;;29.20;99.90;;;;;;4935003;29;20468;-70
2021/06/20 13:11:31;;;;;;;4.97;4.80;;;29.30;99.90;;;;;;4935565;29;20492;-70
2021/06/20 13:14:10;;;;;;;4.80;4.60;;;29.50;99.90;;;;;;4935302;29;21022;-70
2021/06/20 13:16:36;;;;;;;4.50;4.40;;;29.60;99.90;;;;;;4935487;29;20491;-70
2021/06/20 13:19:03;;;;;;;4.70;4.60;;;29.60;99.30;;;;;;4935285;29;20571;-70
2021/06/20 13:21:31;;;;;;;4.37;4.37;;;29.60;98.70;;;;;;4935554;29;20492;-70
2021/06/20 13:23:59;;;;;;;4.27;4.07;;;29.60;98.70;;;;;;4935391;29;20469;-70
2021/06/20 13:26:25;;;;;;;4.90;4.80;;;29.50;99.20;;;;;;4936173;29;20492;-70
2021/06/20 13:28:52;;;;;;;4.20;4.20;;;29.60;98.10;;;;;;4935318;29;20568;-70
2021/06/20 13:31:19;;;;;;;4.17;4.07;;;29.50;97.50;;;;;;4935966;29;20485;-70
2021/06/20 13:33:48;;;;;;;4.17;3.87;;;29.40;97.00;;;;;;4934841;29;20592;-70
2021/06/20 13:36:15;;;;;;;4.27;4.20;;;29.50;98.00;;;;;;4934085;29;20569;-70
2021/06/20 13:38:41;;;;;;;4.83;4.43;;;29.70;97.80;;;;;;4931348;28;21051;-69
2021/06/20 13:41:09;;;;;;;4.50;4.40;;;29.90;98.00;;;;;;4925053;29;20496;-69
2021/06/20 13:43:36;;;;;;;4.50;4.40;;;30.00;97.40;;;;;;4929705;29;20463;-69
2021/06/20 13:46:03;;;;;;;4.37;4.17;;;30.10;96.90;;;;;;4933626;29;20463;-70
2021/06/20 13:48:29;;;;;;;4.43;4.33;;;30.30;97.20;;;;;;4933813;28;20479;-68
2021/06/20 13:50:56;;;;;;;4.23;4.13;;;30.50;96.90;;;;;;4933024;29;20483;-68
2021/06/20 13:53:23;;;;;;;4.00;4.00;;;30.50;95.90;;;;;;4933035;29;21000;-67
2021/06/20 13:55:49;;;;;;;4.20;4.07;;;30.40;95.80;;;;;;4933488;29;20967;-68
2021/06/20 13:58:18;;;;;;;4.47;4.30;;;30.40;95.50;;;;;;4931542;29;20474;-68
2021/06/20 14:00:45;;;;;;;4.17;4.00;;;30.40;96.00;;;;;;4935209;29;20504;-69
2021/06/20 14:03:12;;;;;;;3.77;3.67;;;30.40;95.30;;;;;;4933831;29;20469;-69
2021/06/20 14:05:39;;;;;;;3.63;3.63;;;30.30;94.30;;;;;;4934841;29;20500;-69
2021/06/20 14:08:05;;;;;;;3.73;3.73;;;30.30;94.80;;;;;;4933820;29;20472;-69
2021/06/20 14:10:32;;;;;;;3.27;3.27;;;30.30;95.10;;;;;;4934943;29;20611;-68
2021/06/20 14:12:59;;;;;;;4.23;4.03;;;30.10;94.80;;;;;;4934318;29;20807;-68
2021/06/20 14:15:28;;;;;;;3.77;3.67;;;30.10;95.20;;;;;;4934714;29;20832;-68
2021/06/20 14:17:54;;;;;;;4.50;4.20;;;30.00;95.60;;;;;;4933844;29;20649;-69
2021/06/20 14:20:21;;;;;;;3.90;3.70;;;30.00;95.10;;;;;;4935001;28;20487;-69
2021/06/20 14:22:48;;;;;;;7.43;4.70;;;30.00;95.50;;;;;;4919466;29;20469;-69
2021/06/20 14:25:15;;;;;;;4.50;4.17;;;29.70;95.30;;;;;;4915721;29;20466;-70
2021/06/20 14:27:42;;;;;;;4.23;4.10;;;29.70;95.60;;;;;;4931811;29;20478;-71
2021/06/20 14:30:12;;;;;;;3.93;3.77;;;29.80;96.30;;;;;;4934253;29;21056;-69
2021/06/20 14:32:39;;;;;;;3.50;3.40;;;29.90;95.10;;;;;;4933748;28;20497;-69
2021/06/20 14:35:08;;;;;;;3.93;3.83;;;30.00;94.60;;;;;;4933363;29;20495;-68
2021/06/20 14:37:35;;;;;;;3.80;3.70;;;30.10;94.70;;;;;;4930318;29;20468;-69
2021/06/20 14:40:02;;;;;;;3.83;3.67;;;30.10;94.60;;;;;;4923675;29;20469;-69
2021/06/20 14:42:28;;;;;;;4.00;3.90;;;29.90;95.20;;;;;;4925251;29;20495;-69
2021/06/20 14:44:55;;;;;;;4.40;4.23;;;29.90;95.90;;;;;;4923902;29;20477;-69
2021/06/20 14:47:22;;;;;;;4.07;3.90;;;29.90;94.80;;;;;;4932520;29;20465;-69
2021/06/20 14:49:50;;;;;;;4.80;4.60;;;30.00;95.40;;;;;;4934700;29;20477;-69
2021/06/20 14:52:18;;;;;;;4.60;4.50;;;30.00;95.50;;;;;;4932899;29;20480;-69
2021/06/20 14:54:45;;;;;;;4.50;4.40;;;29.80;95.80;;;;;;4934055;28;20496;-69
2021/06/20 14:57:11;;;;;;;4.30;4.30;;;29.70;96.30;;;;;;4931179;29;20833;-69
2021/06/20 14:59:38;;;;;;;4.07;3.90;;;29.60;96.00;;;;;;4915322;29;20465;-69
2021/06/20 15:02:05;;;;;;;4.53;4.43;;;29.40;95.40;;;;;;4921398;29;21024;-68
2021/06/20 15:04:31;;;;;;;4.53;4.43;;;29.40;96.00;;;;;;4915348;29;20472;-69
2021/06/20 15:06:59;;;;;;;4.53;4.43;;;29.50;96.30;;;;;;4933605;29;20474;-68
2021/06/20 15:09:26;;;;;;;4.57;4.57;;;29.70;96.20;;;;;;4937295;28;20581;-69
2021/06/20 15:11:53;;;;;;;4.03;4.03;;;29.80;95.30;;;;;;4936401;29;20487;-68
2021/06/20 15:14:21;;;;;;;3.83;3.83;;;29.80;95.60;;;;;;4937624;29;20485;-68
2021/06/20 15:16:47;;;;;;;4.20;4.20;;;29.90;94.70;;;;;;4936464;29;20506;-69
2021/06/20 15:19:14;;;;;;;4.67;4.37;;;30.10;94.90;;;;;;4937071;29;20471;-68
2021/06/20 15:21:41;;;;;;;3.80;3.70;;;30.30;95.40;;;;;;4933540;29;20495;-68
2021/06/20 15:24:14;;;;;;;4.00;4.00;;;30.40;94.60;;;;;;4935450;29;20468;-67
2021/06/20 15:26:40;;;;;;;4.80;4.50;;;30.30;93.60;;;;;;4932724;29;20488;-67
2021/06/20 15:29:07;;;;;;;4.50;4.20;;;30.10;94.30;;;;;;4935552;29;20467;-68
2021/06/20 15:31:36;;;;;;;4.13;4.13;;;30.20;94.80;;;;;;4934757;28;20499;-70
2021/06/20 15:34:04;;;;;;;4.50;4.40;;;30.30;94.60;;;;;;4933854;29;20757;-68
2021/06/20 15:36:31;;;;;;;4.70;4.60;;;30.30;94.90;;;;;;4937232;29;20468;-66
2021/06/20 15:38:59;;;;;;;4.90;4.60;;;30.30;94.90;;;;;;4935611;29;20595;-70
2021/06/20 15:41:28;;;;;;;4.00;4.00;;;30.30;94.50;;;;;;4933699;29;20495;-67
2021/06/20 15:43:57;;;;;;;4.20;4.10;;;30.30;94.10;;;;;;4934042;28;20476;-67
2021/06/20 15:46:27;;;;;;;4.40;4.40;;;30.30;94.00;;;;;;4935564;29;20973;-67
2021/06/20 15:48:55;;;;;;;4.30;4.30;;;30.30;94.10;;;;;;4936166;29;20464;-67
2021/06/20 15:51:22;;;;;;;4.70;4.70;;;30.20;94.10;;;;;;4935028;29;20488;-67
2021/06/20 15:53:49;;;;;;;5.27;4.97;;;30.20;94.90;;;;;;4936197;29;20477;-67
2021/06/20 15:56:16;;;;;;;4.90;4.80;;;30.40;95.20;;;;;;4936337;29;20507;-67
2021/06/20 15:58:45;;;;;;;4.50;4.50;;;30.50;94.50;;;;;;4935706;29;20478;-66
2021/06/20 16:01:12;;;;;;;4.60;4.30;;;30.50;93.90;;;;;;4926605;29;20497;-66
2021/06/20 16:03:38;;;;;;;4.70;4.60;;;30.50;93.90;;;;;;4918272;29;20476;-68
2021/06/20 16:06:05;;;;;;;4.80;4.37;;;30.50;94.20;;;;;;4934945;28;20475;-67
2021/06/20 16:08:32;;;;;;;4.93;4.73;;;30.40;93.70;;;;;;4937508;29;20491;-66
2021/06/20 16:10:59;;;;;;;4.77;4.60;;;30.10;94.50;;;;;;4932172;29;20485;-66
2021/06/20 16:13:25;;;;;;;4.97;4.77;;;30.10;95.40;;;;;;4926838;29;20929;-67
2021/06/20 16:15:53;;;;;;;4.97;4.87;;;30.10;95.10;;;;;;4937494;29;20562;-69
2021/06/20 16:18:20;;;;;;;5.30;5.00;;;29.90;95.20;;;;;;4922291;28;20485;-66
2021/06/20 16:20:47;;;;;;;5.40;5.20;;;30.00;95.30;;;;;;4922225;29;20802;-66
2021/06/20 16:23:13;;;;;;;5.13;4.90;;;30.00;95.00;;;;;;4919011;29;20465;-66
2021/06/20 16:25:40;;;;;;;5.03;4.80;;;29.90;94.90;;;;;;4935360;29;20464;-66
2021/06/20 16:28:07;;;;;;;5.00;4.60;;;29.80;95.00;;;;;;4920410;29;20466;-68
2021/06/20 16:30:33;;;;;;;4.80;4.70;;;29.40;94.90;;;;;;4935850;29;20500;-66
2021/06/20 16:33:02;;;;;;;4.80;4.60;;;29.50;95.90;;;;;;4935306;29;20472;-66
2021/06/20 16:35:29;;;;;;;4.57;4.57;;;29.60;95.70;;;;;;4935700;29;20484;-66
2021/06/20 16:37:56;;;;;;;4.97;4.87;;;29.50;95.00;;;;;;4922204;29;20479;-66
2021/06/20 16:40:23;;;;;;;4.63;4.53;;;29.40;95.40;;;;;;4921755;29;20468;-66
2021/06/20 16:42:50;;;;;;;4.57;4.57;;;29.30;95.00;;;;;;4928075;29;20827;-66
2021/06/20 16:45:17;;;;;;;5.00;4.80;;;29.10;95.30;;;;;;4935579;29;20462;-66
2021/06/20 16:47:44;;;;;;;5.00;4.80;;;28.90;95.60;;;;;;4935208;29;20463;-66
2021/06/20 16:50:13;;;;;;;5.00;5.00;;;28.90;96.10;;;;;;4935469;29;20466;-66